Time;durP1;ratioP1;P1;durP2;ratioP2;P2;SDS_P1;SDS_P2;PMS_P1;PMS_P2;Temp;Humidity;BMP_temperature;BMP_pressure;BME280_temperature;BME280_humidity;BME280_pressure;Samples;Min_cycle;Max_cycle;Signal;HPM_P1;HPM_P2
2022/01/02 00:01:34;;;;;;;4.97;2.42;;;10.40;99.90;;;;;;4981177;28;20659;-74
2022/01/02 00:04:02;;;;;;;6.30;3.17;;;10.50;99.90;;;;;;5013969;28;20534;-74
2022/01/02 00:06:31;;;;;;;3.90;2.75;;;10.50;99.90;;;;;;5013592;28;20175;-75
2022/01/02 00:09:05;;;;;;;4.10;2.33;;;10.50;99.90;;;;;;5011802;28;20207;-74
2022/01/02 00:11:32;;;;;;;3.25;2.20;;;10.50;99.90;;;;;;5012552;28;20542;-74
2022/01/02 00:14:06;;;;;;;3.92;2.30;;;10.50;99.90;;;;;;5013537;28;20176;-74
2022/01/02 00:16:34;;;;;;;3.53;2.80;;;10.50;99.90;;;;;;5013776;28;20171;-74
2022/01/02 00:19:08;;;;;;;3.67;2.90;;;10.50;99.90;;;;;;5013109;28;20248;-74
2022/01/02 00:21:41;;;;;;;3.20;2.38;;;10.60;99.90;;;;;;5013388;28;20180;-74
2022/01/02 00:24:12;;;;;;;2.63;2.40;;;10.50;99.90;;;;;;5012850;28;20206;-75
2022/01/02 00:26:43;;;;;;;2.60;2.40;;;10.50;99.90;;;;;;5013449;28;20191;-74
2022/01/02 00:29:09;;;;;;;3.38;2.60;;;10.60;99.90;;;;;;5012831;28;20211;-75
2022/01/02 00:31:36;;;;;;;5.38;2.45;;;10.60;99.90;;;;;;5013130;28;20171;-74
2022/01/02 00:34:06;;;;;;;4.05;3.17;;;10.60;99.90;;;;;;5012059;28;20206;-74
2022/01/02 00:36:32;;;;;;;3.70;2.35;;;10.60;99.90;;;;;;5012942;28;20198;-74
2022/01/02 00:38:57;;;;;;;3.72;2.42;;;10.60;99.90;;;;;;5012882;28;20234;-74
2022/01/02 00:41:37;;;;;;;3.83;2.77;;;10.50;99.90;;;;;;5013246;28;20211;-74
2022/01/02 00:44:22;;;;;;;5.85;2.50;;;10.50;99.90;;;;;;5013528;28;20199;-74
2022/01/02 00:46:52;;;;;;;2.47;2.15;;;10.60;99.90;;;;;;5013280;28;20586;-74
2022/01/02 00:49:25;;;;;;;2.83;2.47;;;10.50;99.90;;;;;;5012835;28;20290;-75
2022/01/02 00:52:03;;;;;;;3.97;2.10;;;10.50;99.90;;;;;;5013401;28;20178;-74
2022/01/02 00:54:30;;;;;;;4.68;2.78;;;10.50;99.90;;;;;;5013202;28;20164;-75
2022/01/02 00:57:02;;;;;;;3.45;2.25;;;10.50;99.90;;;;;;5012210;28;20648;-74
2022/01/02 00:59:30;;;;;;;2.47;2.10;;;10.50;99.90;;;;;;5012828;28;20195;-74
2022/01/02 01:02:02;;;;;;;7.07;2.50;;;10.50;99.90;;;;;;5013051;28;20274;-74
2022/01/02 01:04:31;;;;;;;6.90;2.50;;;10.50;99.90;;;;;;5012200;28;20187;-74
2022/01/02 01:07:03;;;;;;;3.70;2.42;;;10.50;99.90;;;;;;5013089;28;20213;-74
2022/01/02 01:09:30;;;;;;;3.40;2.55;;;10.50;99.90;;;;;;5012210;28;20207;-75
2022/01/02 01:11:59;;;;;;;3.08;2.22;;;10.50;99.90;;;;;;5011668;28;20207;-78
2022/01/02 01:14:26;;;;;;;3.05;2.17;;;10.60;99.90;;;;;;5012770;28;20172;-75
2022/01/02 01:16:53;;;;;;;3.22;2.35;;;10.60;99.90;;;;;;5013063;28;20295;-74
2022/01/02 01:19:19;;;;;;;2.65;2.45;;;10.60;99.90;;;;;;5012570;28;20229;-75
2022/01/02 01:21:45;;;;;;;2.80;2.20;;;10.60;99.90;;;;;;5012688;28;20186;-75
2022/01/02 01:24:10;;;;;;;3.27;2.60;;;10.50;99.90;;;;;;5012976;28;20266;-75
2022/01/02 01:26:37;;;;;;;2.50;2.20;;;10.60;99.90;;;;;;5012791;28;20240;-74
2022/01/02 01:29:03;;;;;;;2.50;2.10;;;10.60;99.90;;;;;;5011581;28;20577;-74
2022/01/02 01:31:29;;;;;;;4.97;2.20;;;10.60;99.90;;;;;;5013084;28;20180;-74
2022/01/02 01:33:54;;;;;;;6.23;2.57;;;10.70;99.90;;;;;;5012665;28;20172;-75
2022/01/02 01:36:20;;;;;;;4.27;2.20;;;10.70;99.90;;;;;;5012032;28;20247;-74
2022/01/02 01:38:46;;;;;;;4.57;2.60;;;10.70;99.90;;;;;;5015995;28;20251;-74
2022/01/02 01:41:23;;;;;;;4.53;2.43;;;10.80;99.90;;;;;;5016429;28;20202;-74
2022/01/02 01:44:07;;;;;;;3.67;2.20;;;10.80;99.90;;;;;;5016203;28;20706;-75
2022/01/02 01:46:35;;;;;;;3.03;2.10;;;10.80;99.90;;;;;;5016369;28;20263;-74
2022/01/02 01:49:00;;;;;;;2.88;1.98;;;10.90;99.90;;;;;;5014569;28;20286;-75
2022/01/02 01:51:26;;;;;;;2.80;2.20;;;10.90;99.90;;;;;;5016266;28;20611;-75
2022/01/02 01:53:52;;;;;;;6.80;2.50;;;10.80;99.90;;;;;;5016124;28;20176;-74
2022/01/02 01:56:17;;;;;;;3.13;2.50;;;10.80;99.90;;;;;;5016122;28;20203;-74
2022/01/02 01:58:44;;;;;;;3.00;2.23;;;10.80;99.90;;;;;;5015671;28;20195;-74
2022/01/02 02:01:09;;;;;;;2.67;2.33;;;10.80;99.90;;;;;;5016035;28;20183;-74
2022/01/02 02:03:35;;;;;;;3.47;2.27;;;10.80;99.90;;;;;;5015976;28;20183;-74
2022/01/02 02:06:01;;;;;;;3.00;2.40;;;10.80;99.90;;;;;;5015884;28;20241;-75
2022/01/02 02:08:27;;;;;;;6.93;2.87;;;10.70;99.90;;;;;;5015317;28;20532;-74
2022/01/02 02:10:56;;;;;;;4.13;2.67;;;10.70;99.90;;;;;;5015737;28;20203;-74
2022/01/02 02:13:23;;;;;;;3.10;2.40;;;10.60;99.90;;;;;;5015782;28;20547;-74
2022/01/02 02:15:50;;;;;;;3.83;2.55;;;10.60;99.90;;;;;;5014602;28;20175;-74
2022/01/02 02:18:16;;;;;;;4.28;2.30;;;10.60;99.90;;;;;;5015241;28;20205;-74
2022/01/02 02:20:42;;;;;;;3.60;2.57;;;10.60;99.90;;;;;;5015696;28;20616;-74
2022/01/02 02:23:11;;;;;;;6.30;2.88;;;10.70;99.90;;;;;;5015769;28;20419;-74
2022/01/02 02:25:38;;;;;;;3.65;2.25;;;10.80;99.90;;;;;;5015509;28;20535;-74
2022/01/02 02:28:13;;;;;;;4.03;2.88;;;10.70;99.90;;;;;;5015178;28;20199;-74
2022/01/02 02:30:41;;;;;;;3.70;2.25;;;10.70;99.90;;;;;;5015461;28;20198;-75
2022/01/02 02:33:09;;;;;;;3.15;2.45;;;10.70;99.90;;;;;;5015548;28;20541;-74
2022/01/02 02:35:37;;;;;;;2.75;2.28;;;10.70;99.90;;;;;;5015360;28;20179;-75
2022/01/02 02:38:05;;;;;;;4.82;2.55;;;10.60;99.90;;;;;;5014898;28;20207;-74
2022/01/02 02:40:31;;;;;;;4.43;2.60;;;10.60;99.90;;;;;;5015257;28;20202;-74
2022/01/02 02:43:21;;;;;;;3.72;2.50;;;10.60;99.90;;;;;;5014115;28;20192;-74
2022/01/02 02:51:27;;;;;;;4.32;2.90;;;10.70;99.90;;;;;;5015443;28;20678;-74
2022/01/02 02:53:53;;;;;;;6.80;2.60;;;10.80;99.90;;;;;;5015076;28;20203;-74
2022/01/02 02:56:23;;;;;;;7.13;3.05;;;10.70;99.90;;;;;;5014930;28;20186;-74
2022/01/02 02:58:51;;;;;;;3.65;3.13;;;10.70;99.90;;;;;;5014429;28;20597;-74
2022/01/02 03:01:18;;;;;;;6.15;2.40;;;10.80;99.90;;;;;;5014821;28;20176;-75
2022/01/02 03:03:45;;;;;;;6.75;2.60;;;10.90;99.90;;;;;;5014796;28;20176;-75
2022/01/02 03:06:12;;;;;;;3.63;2.58;;;10.90;99.90;;;;;;5014890;28;20254;-74
2022/01/02 03:08:40;;;;;;;4.00;2.72;;;10.90;99.90;;;;;;5014403;28;20270;-74
2022/01/02 03:11:09;;;;;;;2.95;2.05;;;10.90;99.90;;;;;;5013673;28;20215;-75
2022/01/02 03:13:34;;;;;;;3.58;2.55;;;10.90;99.90;;;;;;5014727;28;20539;-74
2022/01/02 03:16:00;;;;;;;5.60;2.80;;;10.90;99.90;;;;;;5014767;28;20180;-74
2022/01/02 03:18:25;;;;;;;5.40;2.53;;;10.90;99.90;;;;;;5014349;28;20206;-74
2022/01/02 03:20:51;;;;;;;5.57;2.63;;;10.90;99.90;;;;;;5014462;28;20291;-74
2022/01/02 03:23:16;;;;;;;3.70;2.70;;;10.90;99.90;;;;;;5014613;28;20667;-74
2022/01/02 03:25:42;;;;;;;8.13;3.20;;;10.80;99.90;;;;;;5013182;28;20187;-74
2022/01/02 03:28:08;;;;;;;5.50;2.90;;;10.90;99.90;;;;;;5014179;28;20651;-74
2022/01/02 03:30:34;;;;;;;2.93;2.57;;;10.90;99.90;;;;;;5014539;28;20613;-74
2022/01/02 03:32:59;;;;;;;4.67;2.83;;;10.90;99.90;;;;;;5014406;28;20183;-75
2022/01/02 03:35:25;;;;;;;4.73;2.60;;;10.80;99.90;;;;;;5013370;28;20179;-74
2022/01/02 03:37:51;;;;;;;5.37;2.93;;;10.80;99.90;;;;;;5013893;28;20678;-74
2022/01/02 03:40:17;;;;;;;4.55;2.63;;;10.80;99.90;;;;;;5014438;28;20208;-74
2022/01/02 03:42:42;;;;;;;5.20;3.13;;;10.80;99.90;;;;;;5014210;28;20207;-74
2022/01/02 03:45:09;;;;;;;5.60;3.67;;;10.80;99.90;;;;;;5013913;28;20422;-74
2022/01/02 03:47:35;;;;;;;4.85;2.80;;;10.80;99.90;;;;;;5013709;28;20259;-74
2022/01/02 03:50:02;;;;;;;5.40;3.13;;;10.80;99.90;;;;;;5013998;28;20293;-74
2022/01/02 03:52:28;;;;;;;6.60;3.42;;;10.90;99.90;;;;;;5014065;28;20167;-75
2022/01/02 03:54:53;;;;;;;6.47;3.70;;;10.90;99.90;;;;;;5013820;28;20275;-75
2022/01/02 03:57:19;;;;;;;6.23;3.30;;;10.90;99.90;;;;;;5012530;28;20172;-75
2022/01/02 03:59:45;;;;;;;5.30;2.58;;;10.80;99.90;;;;;;5013079;28;20250;-74
2022/01/02 04:02:11;;;;;;;4.27;3.20;;;10.80;99.90;;;;;;5013812;28;20180;-74
2022/01/02 04:04:37;;;;;;;4.70;3.03;;;10.80;99.90;;;;;;5013826;28;20195;-74
2022/01/02 04:07:03;;;;;;;5.25;3.25;;;10.90;99.90;;;;;;5012531;28;20442;-74
2022/01/02 04:09:29;;;;;;;3.83;2.80;;;10.90;99.90;;;;;;5011924;28;20225;-74
2022/01/02 04:11:54;;;;;;;3.50;2.57;;;10.80;99.90;;;;;;5013824;28;20644;-74
2022/01/02 04:14:20;;;;;;;3.60;2.90;;;10.80;99.90;;;;;;5012518;28;20266;-74
2022/01/02 04:16:46;;;;;;;4.03;2.80;;;10.80;99.90;;;;;;5014010;28;20256;-74
2022/01/02 04:19:11;;;;;;;6.50;3.10;;;10.90;99.90;;;;;;5013284;28;20226;-75
2022/01/02 04:21:38;;;;;;;4.80;2.60;;;10.90;99.90;;;;;;5013563;28;20218;-74
2022/01/02 04:24:03;;;;;;;8.13;3.00;;;10.90;99.90;;;;;;5013603;28;20183;-74
2022/01/02 04:26:30;;;;;;;4.73;2.97;;;11.00;99.90;;;;;;5012561;28;20302;-74
2022/01/02 04:28:56;;;;;;;3.60;2.75;;;10.90;99.90;;;;;;5012069;28;20200;-74
2022/01/02 04:31:22;;;;;;;7.03;3.50;;;10.90;99.90;;;;;;5012168;28;20254;-74
2022/01/02 04:33:48;;;;;;;3.40;2.60;;;10.90;99.90;;;;;;5013559;28;20238;-74
2022/01/02 04:36:13;;;;;;;5.00;2.87;;;11.00;99.90;;;;;;5012386;28;20419;-74
2022/01/02 04:38:41;;;;;;;6.17;3.90;;;11.10;99.90;;;;;;5011720;28;20226;-74
2022/01/02 04:41:06;;;;;;;4.25;3.20;;;11.00;99.90;;;;;;5013457;28;20179;-74
2022/01/02 04:43:32;;;;;;;4.90;3.10;;;11.00;99.90;;;;;;5012077;28;20238;-74
2022/01/02 04:45:57;;;;;;;4.93;3.30;;;11.00;99.90;;;;;;5013433;28;20187;-75
2022/01/02 04:48:23;;;;;;;8.23;3.37;;;10.90;99.90;;;;;;5013016;28;20278;-74
2022/01/02 04:50:49;;;;;;;6.80;3.43;;;11.00;99.90;;;;;;5013160;28;20290;-75
2022/01/02 04:53:16;;;;;;;5.13;3.13;;;11.00;99.90;;;;;;5013134;28;20171;-76
2022/01/02 04:55:41;;;;;;;5.90;2.90;;;10.90;99.90;;;;;;5013033;28;20671;-74
2022/01/02 04:58:07;;;;;;;4.73;3.70;;;10.90;99.90;;;;;;5012856;28;20207;-74
2022/01/02 05:00:33;;;;;;;7.87;3.03;;;10.90;99.90;;;;;;5013198;28;20191;-74
2022/01/02 05:02:58;;;;;;;4.87;3.30;;;11.00;99.90;;;;;;5013197;28;20191;-74
2022/01/02 05:05:24;;;;;;;5.10;3.70;;;11.00;99.90;;;;;;5013059;28;20545;-74
2022/01/02 05:07:49;;;;;;;3.83;2.87;;;10.90;99.90;;;;;;5012630;28;20290;-74
2022/01/02 05:10:15;;;;;;;6.80;3.40;;;10.90;99.90;;;;;;5013296;28;20214;-74
2022/01/02 05:12:41;;;;;;;7.77;3.50;;;10.90;99.90;;;;;;5015528;28;20263;-74
2022/01/02 05:15:07;;;;;;;7.00;3.80;;;10.90;99.90;;;;;;5017188;28;20830;-74
2022/01/02 05:17:33;;;;;;;8.40;3.22;;;10.90;99.90;;;;;;5015347;28;20211;-74
2022/01/02 05:19:58;;;;;;;4.70;3.00;;;10.90;99.90;;;;;;5015621;28;20234;-74
2022/01/02 05:22:24;;;;;;;7.10;3.40;;;10.90;99.90;;;;;;5016806;28;20506;-74
2022/01/02 05:24:49;;;;;;;10.20;3.17;;;10.90;99.90;;;;;;5016756;28;20187;-74
2022/01/02 05:27:15;;;;;;;7.40;3.67;;;10.90;99.90;;;;;;5016664;28;20210;-74
2022/01/02 05:29:40;;;;;;;5.40;3.10;;;10.90;99.90;;;;;;5014989;28;20207;-75
2022/01/02 05:32:06;;;;;;;7.00;3.03;;;10.90;99.90;;;;;;5016875;28;20178;-74
2022/01/02 05:34:32;;;;;;;4.97;3.00;;;10.90;99.90;;;;;;5015607;28;20179;-74
2022/01/02 05:36:57;;;;;;;6.27;2.90;;;10.90;99.90;;;;;;5015221;28;20648;-74
2022/01/02 05:39:23;;;;;;;4.60;2.70;;;10.90;99.90;;;;;;5016177;28;20199;-74
2022/01/02 05:41:50;;;;;;;3.60;3.00;;;10.90;99.90;;;;;;5016229;28;20179;-74
2022/01/02 05:44:17;;;;;;;6.35;3.30;;;10.90;99.90;;;;;;5016482;28;20188;-74
2022/01/02 05:46:43;;;;;;;6.22;2.80;;;10.90;99.90;;;;;;5015069;28;20187;-74
2022/01/02 05:49:09;;;;;;;8.43;4.00;;;10.90;99.90;;;;;;5015785;28;20569;-74
2022/01/02 05:51:35;;;;;;;11.82;3.70;;;10.80;99.90;;;;;;5016114;28;20254;-75
2022/01/02 05:54:01;;;;;;;7.55;2.92;;;10.80;99.90;;;;;;5016094;28;20180;-74
2022/01/02 05:56:27;;;;;;;6.13;3.50;;;10.80;99.90;;;;;;5016114;28;20258;-74
2022/01/02 05:58:53;;;;;;;8.93;3.60;;;10.80;99.90;;;;;;5014438;28;20504;-74
2022/01/02 06:01:18;;;;;;;7.40;4.03;;;10.70;99.90;;;;;;5016034;28;20209;-74
2022/01/02 06:03:44;;;;;;;8.37;3.77;;;10.80;99.90;;;;;;5015955;28;20738;-75
2022/01/02 06:06:09;;;;;;;5.87;3.80;;;10.80;99.90;;;;;;5015837;28;20209;-74
2022/01/02 06:08:36;;;;;;;7.63;4.07;;;10.80;99.90;;;;;;5015514;28;20722;-74
2022/01/02 06:11:01;;;;;;;4.13;3.63;;;10.90;99.90;;;;;;5014620;28;20249;-74
2022/01/02 06:13:27;;;;;;;3.67;3.00;;;11.00;99.90;;;;;;5015926;28;20216;-74
2022/01/02 06:15:53;;;;;;;6.80;3.30;;;10.90;99.90;;;;;;5015737;28;20179;-74
2022/01/02 06:18:19;;;;;;;4.50;3.40;;;10.90;99.90;;;;;;5015335;28;20195;-74
2022/01/02 06:20:44;;;;;;;6.47;4.00;;;10.90;99.90;;;;;;5015638;28;20274;-74
2022/01/02 06:23:10;;;;;;;10.73;4.60;;;10.90;99.90;;;;;;5015349;28;20190;-74
2022/01/02 06:25:36;;;;;;;5.43;3.63;;;10.90;99.90;;;;;;5015796;28;20179;-74
2022/01/02 06:28:02;;;;;;;5.50;3.87;;;10.90;99.90;;;;;;5015003;28;20242;-74
2022/01/02 06:30:28;;;;;;;10.70;5.18;;;10.90;99.90;;;;;;5015468;28;20549;-74
2022/01/02 06:32:56;;;;;;;6.10;3.35;;;10.90;99.90;;;;;;5014015;28;20190;-74
2022/01/02 06:35:28;;;;;;;5.95;3.63;;;10.90;99.90;;;;;;5014842;28;20190;-75
2022/01/02 06:37:54;;;;;;;5.72;3.63;;;10.90;99.90;;;;;;5014986;28;20192;-75
2022/01/02 06:40:22;;;;;;;10.07;4.57;;;10.90;99.90;;;;;;5015208;28;20180;-75
2022/01/02 06:42:48;;;;;;;8.85;4.68;;;10.90;99.90;;;;;;5015236;28;20187;-74
2022/01/02 06:45:14;;;;;;;6.97;3.87;;;10.90;99.90;;;;;;5015318;28;20175;-74
2022/01/02 06:47:39;;;;;;;8.23;3.92;;;10.90;99.90;;;;;;5014896;28;20518;-74
2022/01/02 06:50:06;;;;;;;6.03;4.23;;;10.80;99.90;;;;;;5015048;28;20269;-74
2022/01/02 06:52:31;;;;;;;5.47;3.72;;;10.90;99.90;;;;;;5015016;28;20179;-75
2022/01/02 06:54:57;;;;;;;7.00;4.13;;;10.80;99.90;;;;;;5014043;28;20180;-74
2022/01/02 06:57:23;;;;;;;6.73;4.50;;;10.80;99.90;;;;;;5015017;28;20218;-74
2022/01/02 06:59:49;;;;;;;4.53;3.93;;;10.80;99.90;;;;;;5014636;28;20198;-74
2022/01/02 07:02:16;;;;;;;4.68;3.28;;;10.80;99.90;;;;;;5014755;28;20199;-74
2022/01/02 07:04:41;;;;;;;4.88;3.70;;;10.80;99.90;;;;;;5014722;28;20214;-74
2022/01/02 07:07:07;;;;;;;5.43;4.27;;;10.90;99.90;;;;;;5014751;28;20616;-74
2022/01/02 07:09:33;;;;;;;6.90;3.57;;;10.90;99.90;;;;;;5014248;28;20215;-74
2022/01/02 07:11:59;;;;;;;4.77;3.70;;;10.90;99.90;;;;;;5014668;28;20183;-74
2022/01/02 07:14:27;;;;;;;5.10;3.70;;;10.90;99.90;;;;;;5014591;28;20176;-74
2022/01/02 07:16:56;;;;;;;4.50;3.60;;;11.00;99.90;;;;;;5013334;28;20196;-75
2022/01/02 07:19:22;;;;;;;8.88;4.93;;;11.00;99.90;;;;;;5014134;28;20207;-74
2022/01/02 07:21:49;;;;;;;3.93;3.10;;;10.90;99.90;;;;;;5014662;28;20194;-74
2022/01/02 07:24:15;;;;;;;7.10;3.63;;;11.00;99.90;;;;;;5014644;28;20175;-74
2022/01/02 07:26:41;;;;;;;5.28;3.72;;;11.00;99.90;;;;;;5014390;28;20734;-74
2022/01/02 07:29:06;;;;;;;4.43;3.50;;;11.00;99.90;;;;;;5014005;28;20259;-75
2022/01/02 07:31:32;;;;;;;5.37;3.60;;;11.00;99.90;;;;;;5014357;28;20501;-75
2022/01/02 07:33:58;;;;;;;10.13;2.97;;;10.90;99.90;;;;;;5014052;28;20190;-74
2022/01/02 07:36:23;;;;;;;4.30;2.97;;;10.90;99.90;;;;;;5014251;28;20187;-74
2022/01/02 07:38:49;;;;;;;5.13;4.37;;;10.90;99.90;;;;;;5013576;28;20574;-74
2022/01/02 07:41:15;;;;;;;4.90;3.90;;;11.00;99.90;;;;;;5014501;28;20226;-74
2022/01/02 07:43:40;;;;;;;4.60;3.30;;;11.00;99.90;;;;;;5014142;28;20206;-74
2022/01/02 07:46:06;;;;;;;6.57;3.23;;;11.00;99.90;;;;;;5014365;28;20648;-74
2022/01/02 07:48:32;;;;;;;3.93;3.27;;;11.00;99.90;;;;;;5013834;28;20222;-74
2022/01/02 07:50:57;;;;;;;4.90;3.07;;;11.00;99.90;;;;;;5013827;28;20265;-74
2022/01/02 07:53:23;;;;;;;5.23;3.80;;;11.00;99.90;;;;;;5014080;28;20218;-74
2022/01/02 07:55:49;;;;;;;5.87;4.27;;;11.00;99.90;;;;;;5014007;28;20640;-74
2022/01/02 07:58:14;;;;;;;8.10;3.27;;;11.10;99.90;;;;;;5013646;28;20226;-74
2022/01/02 08:00:40;;;;;;;4.03;2.80;;;11.00;99.90;;;;;;5013778;28;20722;-74
2022/01/02 08:03:06;;;;;;;4.57;4.00;;;11.00;99.90;;;;;;5012478;28;20183;-74
2022/01/02 08:05:32;;;;;;;6.23;2.97;;;11.00;99.90;;;;;;5012731;28;20244;-74
2022/01/02 08:07:58;;;;;;;4.63;3.00;;;11.10;99.90;;;;;;5012140;28;20760;-74
2022/01/02 08:10:25;;;;;;;3.70;2.80;;;11.00;99.90;;;;;;5012441;28;20204;-74
2022/01/02 08:12:51;;;;;;;4.97;2.85;;;11.00;99.90;;;;;;5013543;28;20172;-75
2022/01/02 08:15:17;;;;;;;4.55;3.10;;;11.10;99.90;;;;;;5012435;28;20190;-74
2022/01/02 08:17:42;;;;;;;2.73;2.43;;;11.20;99.90;;;;;;5013311;28;20261;-74
2022/01/02 08:20:09;;;;;;;3.00;2.70;;;11.20;99.90;;;;;;5013718;28;20190;-74
2022/01/02 08:22:34;;;;;;;3.47;2.72;;;11.20;99.90;;;;;;5013542;28;20187;-74
2022/01/02 08:25:01;;;;;;;4.10;2.30;;;11.20;99.90;;;;;;5013492;28;20274;-74
2022/01/02 08:27:27;;;;;;;4.07;2.95;;;11.10;99.90;;;;;;5013459;28;20230;-75
2022/01/02 08:29:53;;;;;;;3.13;2.50;;;11.20;99.90;;;;;;5013343;28;20207;-74
2022/01/02 08:32:19;;;;;;;2.43;2.20;;;11.30;99.90;;;;;;5013667;28;20187;-74
2022/01/02 08:34:44;;;;;;;2.60;2.17;;;11.30;99.90;;;;;;5013628;28;20403;-74
2022/01/02 08:37:11;;;;;;;2.83;2.47;;;11.30;99.90;;;;;;5013322;28;20186;-74
2022/01/02 08:39:38;;;;;;;2.85;2.25;;;11.30;99.90;;;;;;5013165;28;20223;-74
2022/01/02 08:42:04;;;;;;;3.47;2.80;;;11.30;99.90;;;;;;5013499;28;20187;-74
2022/01/02 08:44:29;;;;;;;2.55;2.15;;;11.40;99.90;;;;;;5013314;28;20184;-74
2022/01/02 08:46:55;;;;;;;3.00;2.50;;;11.30;99.90;;;;;;5016104;28;20183;-74
2022/01/02 08:49:21;;;;;;;3.83;2.30;;;11.40;99.90;;;;;;5016770;28;20234;-74
2022/01/02 08:51:47;;;;;;;2.87;2.13;;;11.40;99.90;;;;;;5017505;28;20179;-74
2022/01/02 08:54:13;;;;;;;3.25;2.33;;;11.40;99.90;;;;;;5016200;28;20186;-74
2022/01/02 08:56:39;;;;;;;3.70;2.50;;;11.50;99.90;;;;;;5017156;28;20179;-74
2022/01/02 08:59:04;;;;;;;4.27;2.27;;;11.60;99.90;;;;;;5016738;28;20288;-74
2022/01/02 09:01:30;;;;;;;7.17;2.43;;;11.60;99.90;;;;;;5015824;28;20250;-74
2022/01/02 09:03:56;;;;;;;4.50;2.40;;;11.60;99.90;;;;;;5016162;28;20215;-74
2022/01/02 09:06:21;;;;;;;6.13;2.03;;;11.70;99.90;;;;;;5017078;28;20191;-74
2022/01/02 09:08:47;;;;;;;4.83;2.30;;;11.80;99.90;;;;;;5016597;28;20200;-74
2022/01/02 09:11:13;;;;;;;2.10;1.90;;;11.80;99.90;;;;;;5016893;28;20211;-74
2022/01/02 09:13:39;;;;;;;4.03;2.30;;;11.80;99.90;;;;;;5016839;28;20574;-74
2022/01/02 09:16:04;;;;;;;5.33;2.83;;;11.80;99.90;;;;;;5017101;28;20184;-74
2022/01/02 09:18:30;;;;;;;3.80;2.30;;;11.70;99.90;;;;;;5016431;28;20668;-74
2022/01/02 09:20:56;;;;;;;3.73;2.33;;;11.70;99.90;;;;;;5015938;28;20651;-74
2022/01/02 09:23:21;;;;;;;4.10;2.30;;;11.80;99.90;;;;;;5016781;28;20238;-74
2022/01/02 09:25:47;;;;;;;3.63;2.40;;;11.70;99.90;;;;;;5016826;28;20196;-74
2022/01/02 09:28:12;;;;;;;4.43;2.30;;;11.70;99.90;;;;;;5016312;28;20207;-74
2022/01/02 09:30:38;;;;;;;2.47;2.20;;;11.80;99.90;;;;;;5016774;28;20211;-74
2022/01/02 09:33:08;;;;;;;3.43;2.13;;;11.80;99.90;;;;;;5017047;28;20171;-74
2022/01/02 09:35:38;;;;;;;3.55;2.33;;;11.80;99.90;;;;;;5015350;28;20568;-74
2022/01/02 09:38:03;;;;;;;5.70;2.35;;;11.90;99.90;;;;;;5015961;28;20220;-74
2022/01/02 09:40:30;;;;;;;3.60;2.20;;;12.00;99.90;;;;;;5016378;28;20188;-73
2022/01/02 09:42:57;;;;;;;3.88;2.90;;;12.00;99.90;;;;;;5015191;28;20199;-73
2022/01/02 09:45:23;;;;;;;3.13;2.10;;;12.10;99.90;;;;;;5016538;28;20199;-73
2022/01/02 09:47:51;;;;;;;3.83;2.80;;;12.20;99.90;;;;;;5015767;28;20192;-74
2022/01/02 09:50:18;;;;;;;2.53;2.08;;;12.20;99.90;;;;;;5016141;28;20258;-73
2022/01/02 09:52:44;;;;;;;5.00;2.28;;;12.30;99.90;;;;;;5016303;28;20176;-73
2022/01/02 09:55:10;;;;;;;3.40;1.90;;;12.50;99.90;;;;;;5016188;28;20180;-73
2022/01/02 09:57:42;;;;;;;5.05;3.30;;;12.50;99.90;;;;;;5013731;28;20633;-73
2022/01/02 10:00:08;;;;;;;3.15;2.53;;;12.60;99.90;;;;;;5016167;28;20188;-73
2022/01/02 10:02:55;;;;;;;3.75;2.42;;;12.60;99.90;;;;;;5016056;28;20176;-73
2022/01/02 10:05:24;;;;;;;3.20;2.28;;;12.80;99.90;;;;;;5015824;28;20481;-73
2022/01/02 10:07:51;;;;;;;3.97;2.47;;;12.80;99.90;;;;;;5014034;28;20670;-73
2022/01/02 10:10:16;;;;;;;2.63;2.03;;;12.90;99.90;;;;;;5015755;28;20858;-73
2022/01/02 10:12:42;;;;;;;3.80;2.50;;;12.90;99.90;;;;;;5015699;28;20471;-73
2022/01/02 10:15:25;;;;;;;3.53;2.30;;;13.00;99.90;;;;;;5015771;28;20180;-73
2022/01/02 10:17:57;;;;;;;3.60;2.15;;;12.90;99.90;;;;;;5015295;28;20179;-73
2022/01/02 10:20:26;;;;;;;2.70;2.35;;;13.20;99.90;;;;;;5015723;28;20211;-73
2022/01/02 10:23:13;;;;;;;4.40;2.60;;;13.40;99.90;;;;;;5015771;28;20256;-73
2022/01/02 10:25:57;;;;;;;4.05;2.08;;;13.60;99.90;;;;;;5015586;28;20176;-74
2022/01/02 10:28:43;;;;;;;5.50;2.43;;;13.70;99.90;;;;;;5013874;28;20231;-73
2022/01/02 10:31:15;;;;;;;2.80;2.03;;;13.60;99.90;;;;;;5015596;28;20454;-73
2022/01/02 10:34:14;;;;;;;2.92;1.90;;;13.70;99.90;;;;;;5015682;28;20406;-73
2022/01/02 10:36:40;;;;;;;5.20;2.53;;;13.70;99.90;;;;;;4972362;28;20723;-73
2022/01/02 10:39:11;;;;;;;2.83;2.10;;;13.90;99.90;;;;;;5014992;28;20435;-73
2022/01/02 10:41:40;;;;;;;4.47;2.50;;;13.90;99.90;;;;;;5015537;28;20407;-73
2022/01/02 10:44:26;;;;;;;4.83;2.27;;;14.40;99.90;;;;;;5015190;28;20421;-73
2022/01/02 10:47:11;;;;;;;3.73;3.30;;;14.60;99.90;;;;;;5014035;28;20429;-73
2022/01/02 10:49:55;;;;;;;3.73;2.33;;;14.80;99.90;;;;;;5013654;28;20468;-73
2022/01/02 10:52:32;;;;;;;4.43;2.80;;;15.00;99.90;;;;;;5015046;28;20416;-73
2022/01/02 10:55:05;;;;;;;3.70;2.57;;;14.90;99.90;;;;;;5013838;28;20529;-73
2022/01/02 10:57:31;;;;;;;2.57;2.00;;;14.80;99.90;;;;;;5014849;28;20496;-73
2022/01/02 10:59:59;;;;;;;5.03;2.67;;;14.60;99.90;;;;;;5014791;28;20839;-73
2022/01/02 11:02:26;;;;;;;6.37;2.57;;;14.60;99.90;;;;;;5014844;28;20842;-73
2022/01/02 11:05:03;;;;;;;4.50;2.70;;;14.60;99.90;;;;;;5014985;28;20407;-73
2022/01/02 11:07:45;;;;;;;3.43;2.83;;;14.60;99.90;;;;;;5014544;28;20436;-73
2022/01/02 11:10:14;;;;;;;5.70;2.40;;;14.50;99.90;;;;;;5012275;28;20454;-74
2022/01/02 11:12:41;;;;;;;4.40;2.60;;;14.40;99.90;;;;;;5014652;28;20879;-73
2022/01/02 11:15:08;;;;;;;3.73;2.40;;;14.40;99.90;;;;;;5014846;28;20414;-73
2022/01/02 11:17:35;;;;;;;3.40;2.23;;;14.50;99.90;;;;;;5014411;28;20760;-73
2022/01/02 11:20:05;;;;;;;3.43;2.63;;;14.40;99.90;;;;;;5014496;28;20415;-73
2022/01/02 11:22:57;;;;;;;4.70;2.67;;;14.40;99.90;;;;;;5014646;28;20784;-73
2022/01/02 11:25:34;;;;;;;5.10;2.50;;;14.70;99.90;;;;;;5014596;28;20423;-73
2022/01/02 11:28:03;;;;;;;4.17;2.50;;;14.90;99.90;;;;;;5014316;28;20436;-73
2022/01/02 11:30:35;;;;;;;7.63;2.23;;;14.90;99.90;;;;;;5014363;28;20491;-74
2022/01/02 11:33:03;;;;;;;4.13;3.27;;;15.10;99.90;;;;;;5014459;28;20418;-74
2022/01/02 11:35:31;;;;;;;5.87;2.63;;;15.10;99.90;;;;;;5014380;28;20939;-73
2022/01/02 11:38:03;;;;;;;4.17;2.77;;;15.10;99.90;;;;;;5013858;28;20913;-73
2022/01/02 11:40:54;;;;;;;4.60;2.27;;;14.60;99.90;;;;;;5014034;28;20942;-73
2022/01/02 11:43:47;;;;;;;4.60;2.80;;;14.40;99.90;;;;;;5014313;28;20412;-73
2022/01/02 11:46:25;;;;;;;7.40;2.50;;;14.20;99.90;;;;;;5014514;28;20918;-73
2022/01/02 11:49:13;;;;;;;8.07;3.10;;;14.20;99.90;;;;;;5013815;28;20430;-73
2022/01/02 11:51:50;;;;;;;4.70;2.30;;;14.20;99.90;;;;;;5014287;28;20481;-73
2022/01/02 11:54:28;;;;;;;7.70;3.80;;;14.00;99.90;;;;;;5012852;28;20414;-73
2022/01/02 11:56:55;;;;;;;7.73;2.87;;;14.00;99.90;;;;;;5013941;28;20416;-73
2022/01/02 11:59:55;;;;;;;4.80;3.13;;;14.00;99.90;;;;;;5013634;28;20434;-73
2022/01/02 12:02:26;;;;;;;3.90;2.60;;;13.90;99.90;;;;;;4971905;28;20476;-73
2022/01/02 12:07:40;;;;;;;3.90;2.90;;;13.80;99.90;;;;;;5013607;28;20405;-74
2022/01/02 12:10:17;;;;;;;6.50;2.47;;;13.70;99.90;;;;;;5013475;28;20548;-74
2022/01/02 12:13:10;;;;;;;7.07;2.37;;;13.70;99.90;;;;;;5013516;28;20413;-74
2022/01/02 12:15:38;;;;;;;3.60;2.00;;;13.70;99.90;;;;;;5013741;28;20526;-74
2022/01/02 12:18:19;;;;;;;3.87;2.40;;;13.70;99.90;;;;;;5013530;28;20430;-74
2022/01/02 12:20:56;;;;;;;8.13;2.60;;;13.70;99.90;;;;;;5013208;28;20429;-73
2022/01/02 12:23:33;;;;;;;4.33;2.77;;;13.60;99.90;;;;;;5013483;28;20418;-73
2022/01/02 12:26:09;;;;;;;2.17;1.97;;;13.70;99.90;;;;;;5013615;28;20501;-74
2022/01/02 12:28:59;;;;;;;5.73;2.20;;;13.60;99.90;;;;;;5013145;28;20584;-74
2022/01/02 12:31:30;;;;;;;4.50;2.40;;;13.60;99.90;;;;;;5012323;28;20569;-74
2022/01/02 12:34:04;;;;;;;4.60;2.77;;;13.60;99.90;;;;;;5013437;28;20401;-74
2022/01/02 12:36:30;;;;;;;6.13;2.67;;;13.80;99.90;;;;;;5013564;28;20402;-74
2022/01/02 12:38:58;;;;;;;6.63;2.73;;;14.00;99.90;;;;;;5012744;28;20539;-73
2022/01/02 12:41:26;;;;;;;6.37;2.17;;;14.30;99.90;;;;;;5013381;28;20418;-74
2022/01/02 12:43:53;;;;;;;5.63;2.63;;;14.20;99.90;;;;;;5013220;28;20423;-74
2022/01/02 12:46:44;;;;;;;5.90;2.67;;;14.20;99.90;;;;;;5013471;28;20423;-74
2022/01/02 12:49:10;;;;;;;6.65;2.53;;;14.10;99.90;;;;;;5012952;28;20434;-73
2022/01/02 12:51:45;;;;;;;6.23;2.60;;;14.10;99.90;;;;;;5013318;28;20624;-73
2022/01/02 12:54:14;;;;;;;4.73;2.90;;;14.10;99.90;;;;;;5013315;28;20579;-75
2022/01/02 12:56:44;;;;;;;4.30;3.27;;;13.90;99.90;;;;;;5013215;28;20414;-75
2022/01/02 12:59:18;;;;;;;4.60;3.10;;;13.70;99.90;;;;;;5012644;28;20470;-74
2022/01/02 13:02:05;;;;;;;6.70;2.60;;;13.80;99.90;;;;;;5013248;28;20801;-73